PWSweather.com
Personal Weather Stations
Station Observations
KMIEASTT1
Tawas Bay, East Tawas, MI 48730

Tawas BayEast Tawas, MI 48730

Lat: 44.28, Lon: -83.48

Elevation: 600

Station Type: Davis VantagePro

http://www.tawasbayweather.com

High Low Average
Temperature 32.4°F0.2°C 26.7°F-2.9°C 29.5°F-1.4°C
Dew Point 31.6°F-0.2°C 21.3°F-5.9°C 26.9°F-2.8°C
Winds 20.0 mph 32.2 kmh Calm Calm 6.0 mph ENE9.7 kmh ENE
Wind Gusts 34.0 mph54.7 kmh -- 13.0 mph20.9 kmh
Humidity 97% 74% 90%
Pressure 30.30 in1026.1 mb 29.74 in1007.1 mb -
Precipitation 0.00 in0.0 mm - -
Hour Temp Dew Point Humidity Winds Wind Gusts Pressure Precip Precip Rate Daily Precip Total
12:00 AM 29.8°F-1.2°C 24.7°F-4.1°C 81% 19.0 mph ESE30.6 kmh ESE 32.0 mph51.5 kmh 30.30 in1026.1 mb 0.00 in0.0 mm 0.00 in0.0 mm 0.00 in0.0 mm
12:15 AM 28.4°F-2.0°C 23.0°F-5.0°C 80% 7.0 mph ENE11.3 kmh ENE 19.0 mph30.6 kmh 30.30 in1026.1 mb 0.00 in0.0 mm 0.00 in0.0 mm 0.00 in0.0 mm
12:30 AM 28.4°F-2.0°C 23.0°F-5.0°C 80% 4.0 mph NE6.4 kmh NE 24.0 mph38.6 kmh 30.29 in1025.7 mb 0.00 in0.0 mm 0.00 in0.0 mm 0.00 in0.0 mm
12:45 AM 28.5°F-1.9°C 22.8°F-5.1°C 79% 8.0 mph E12.9 kmh E 18.0 mph29.0 kmh 30.26 in1024.7 mb 0.00 in0.0 mm 0.00 in0.0 mm 0.00 in0.0 mm
01:00 AM 28.5°F-1.9°C 22.5°F-5.3°C 78% 5.0 mph ENE8.0 kmh ENE 17.0 mph27.4 kmh 30.25 in1024.4 mb 0.00 in0.0 mm 0.00 in0.0 mm 0.00 in0.0 mm
01:15 AM 28.5°F-1.9°C 22.5°F-5.3°C 78% 14.0 mph NE22.5 kmh NE 15.0 mph24.1 kmh 30.25 in1024.4 mb 0.00 in0.0 mm 0.00 in0.0 mm 0.00 in0.0 mm
01:30 AM 28.5°F-1.9°C 21.9°F-5.6°C 76% 10.0 mph E16.1 kmh E 20.0 mph32.2 kmh 30.26 in1024.7 mb 0.00 in0.0 mm 0.00 in0.0 mm 0.00 in0.0 mm
01:45 AM 28.5°F-1.9°C 21.9°F-5.6°C 76% 8.0 mph ENE12.9 kmh ENE 14.0 mph22.5 kmh 30.26 in1024.7 mb 0.00 in0.0 mm 0.00 in0.0 mm 0.00 in0.0 mm
02:00 AM 28.5°F-1.9°C 22.2°F-5.4°C 77% 8.0 mph E12.9 kmh E 21.0 mph33.8 kmh 30.25 in1024.4 mb 0.00 in0.0 mm 0.00 in0.0 mm 0.00 in0.0 mm
02:15 AM 28.5°F-1.9°C 21.6°F-5.8°C 75% 6.0 mph NNE9.7 kmh NNE 19.0 mph30.6 kmh 30.24 in1024.0 mb 0.00 in0.0 mm 0.00 in0.0 mm 0.00 in0.0 mm
02:30 AM 28.6°F-1.9°C 21.7°F-5.7°C 75% 10.0 mph NE16.1 kmh NE 34.0 mph54.7 kmh 30.22 in1023.4 mb 0.00 in0.0 mm 0.00 in0.0 mm 0.00 in0.0 mm
02:45 AM 28.6°F-1.9°C 21.7°F-5.7°C 75% 16.0 mph ENE25.7 kmh ENE 18.0 mph29.0 kmh 30.21 in1023.0 mb 0.00 in0.0 mm 0.00 in0.0 mm 0.00 in0.0 mm
03:00 AM 28.5°F-1.9°C 21.3°F-5.9°C 74% 10.0 mph ESE16.1 kmh ESE 26.0 mph41.8 kmh 30.20 in1022.7 mb 0.00 in0.0 mm 0.00 in0.0 mm 0.00 in0.0 mm
03:15 AM 28.5°F-1.9°C 21.6°F-5.8°C 75% 3.0 mph E4.8 kmh E 22.0 mph35.4 kmh 30.21 in1023.0 mb 0.00 in0.0 mm 0.00 in0.0 mm 0.00 in0.0 mm
03:30 AM 28.7°F-1.8°C 22.1°F-5.5°C 76% 8.0 mph E12.9 kmh E 23.0 mph37.0 kmh 30.24 in1024.0 mb 0.00 in0.0 mm 0.00 in0.0 mm 0.00 in0.0 mm
03:45 AM 28.4°F-2.0°C 22.1°F-5.5°C 77% 8.0 mph ENE12.9 kmh ENE 16.0 mph25.7 kmh 30.23 in1023.7 mb 0.00 in0.0 mm 0.00 in0.0 mm 0.00 in0.0 mm
04:00 AM 28.3°F-2.1°C 22.9°F-5.1°C 80% 9.0 mph E14.5 kmh E 19.0 mph30.6 kmh 30.21 in1023.0 mb 0.00 in0.0 mm 0.00 in0.0 mm 0.00 in0.0 mm
04:15 AM 27.9°F-2.3°C 22.2°F-5.4°C 79% 11.0 mph ENE17.7 kmh ENE 18.0 mph29.0 kmh 30.18 in1022.0 mb 0.00 in0.0 mm 0.00 in0.0 mm 0.00 in0.0 mm
04:30 AM 27.9°F-2.3°C 22.5°F-5.3°C 80% 12.0 mph NE19.3 kmh NE 28.0 mph45.1 kmh 30.17 in1021.7 mb 0.00 in0.0 mm 0.00 in0.0 mm 0.00 in0.0 mm
04:45 AM 28.1°F-2.2°C 22.4°F-5.3°C 79% 4.0 mph ENE6.4 kmh ENE 18.0 mph29.0 kmh 30.18 in1022.0 mb 0.00 in0.0 mm 0.00 in0.0 mm 0.00 in0.0 mm
05:00 AM 28.0°F-2.2°C 22.9°F-5.1°C 81% 7.0 mph ENE11.3 kmh ENE 17.0 mph27.4 kmh 30.19 in1022.4 mb 0.00 in0.0 mm 0.00 in0.0 mm 0.00 in0.0 mm
05:15 AM 27.9°F-2.3°C 22.8°F-5.1°C 81% 4.0 mph E6.4 kmh E 24.0 mph38.6 kmh 30.18 in1022.0 mb 0.00 in0.0 mm 0.00 in0.0 mm 0.00 in0.0 mm
05:30 AM 27.9°F-2.3°C 23.1°F-4.9°C 82% 6.0 mph NE9.7 kmh NE 18.0 mph29.0 kmh 30.17 in1021.7 mb 0.00 in0.0 mm 0.00 in0.0 mm 0.00 in0.0 mm
05:45 AM 27.6°F-2.4°C 23.4°F-4.8°C 84% 8.0 mph ENE12.9 kmh ENE 27.0 mph43.5 kmh 30.15 in1021.0 mb 0.01 in0.3 mm 0.04 in1.0 mm 0.01 in0.3 mm
06:00 AM 27.6°F-2.4°C 23.4°F-4.8°C 84% 9.0 mph E14.5 kmh E 19.0 mph30.6 kmh 30.14 in1020.7 mb 0.01 in0.3 mm 0.00 in0.0 mm 0.01 in0.3 mm
06:15 AM 27.5°F-2.5°C 23.3°F-4.8°C 84% 17.0 mph ENE27.4 kmh ENE 21.0 mph33.8 kmh 30.13 in1020.3 mb 0.02 in0.5 mm 0.04 in1.0 mm 0.02 in0.5 mm
06:30 AM 27.4°F-2.6°C 23.5°F-4.7°C 85% 5.0 mph NE8.0 kmh NE 21.0 mph33.8 kmh 30.13 in1020.3 mb 0.03 in0.8 mm 0.04 in1.0 mm 0.03 in0.8 mm
06:45 AM 27.4°F-2.6°C 23.8°F-4.6°C 86% 11.0 mph ENE17.7 kmh ENE 19.0 mph30.6 kmh 30.13 in1020.3 mb 0.05 in1.3 mm 0.08 in2.0 mm 0.05 in1.3 mm
07:00 AM 27.4°F-2.6°C 24.1°F-4.4°C 87% 7.0 mph NE11.3 kmh NE 21.0 mph33.8 kmh 30.13 in1020.3 mb 0.05 in1.3 mm 0.00 in0.0 mm 0.05 in1.3 mm
07:15 AM 27.0°F-2.8°C 23.9°F-4.5°C 88% 7.0 mph ENE11.3 kmh ENE 18.0 mph29.0 kmh 30.13 in1020.3 mb 0.06 in1.5 mm 0.04 in1.0 mm 0.06 in1.5 mm
07:30 AM 27.0°F-2.8°C 24.2°F-4.3°C 89% 9.0 mph ENE14.5 kmh ENE 16.0 mph25.7 kmh 30.13 in1020.3 mb 0.06 in1.5 mm 0.00 in0.0 mm 0.06 in1.5 mm
07:45 AM 27.0°F-2.8°C 24.2°F-4.3°C 89% 6.0 mph NE9.7 kmh NE 20.0 mph32.2 kmh 30.12 in1020.0 mb 0.08 in2.0 mm 0.08 in2.0 mm 0.08 in2.0 mm
08:00 AM 27.0°F-2.8°C 24.5°F-4.2°C 90% 6.0 mph NE9.7 kmh NE 16.0 mph25.7 kmh 30.13 in1020.3 mb 0.07 in1.8 mm 0.00 in0.0 mm 0.08 in2.0 mm
08:15 AM 26.7°F-2.9°C 24.7°F-4.1°C 92% 12.0 mph E19.3 kmh E 15.0 mph24.1 kmh 30.11 in1019.6 mb 0.09 in2.3 mm 0.08 in2.0 mm 0.10 in2.5 mm
08:30 AM 26.9°F-2.8°C 25.2°F-3.8°C 93% 9.0 mph E14.5 kmh E 13.0 mph20.9 kmh 30.10 in1019.3 mb 0.08 in2.0 mm 0.00 in0.0 mm 0.10 in2.5 mm
08:45 AM 27.0°F-2.8°C 25.3°F-3.7°C 93% 15.0 mph NE24.1 kmh NE 24.0 mph38.6 kmh 30.09 in1019.0 mb 0.10 in2.5 mm 0.08 in2.0 mm 0.12 in3.0 mm
09:00 AM 27.1°F-2.7°C 25.4°F-3.7°C 93% 8.0 mph ENE12.9 kmh ENE 22.0 mph35.4 kmh 30.07 in1018.3 mb 0.07 in1.8 mm 0.00 in0.0 mm 0.12 in3.0 mm
09:15 AM 27.5°F-2.5°C 25.8°F-3.4°C 93% 3.0 mph ENE4.8 kmh ENE 16.0 mph25.7 kmh 30.08 in1018.6 mb 0.09 in2.3 mm 0.08 in2.0 mm 0.14 in3.6 mm
09:30 AM 27.5°F-2.5°C 26.0°F-3.3°C 94% 4.0 mph E6.4 kmh E 14.0 mph22.5 kmh 30.07 in1018.3 mb 0.06 in1.5 mm 0.00 in0.0 mm 0.14 in3.6 mm
09:45 AM 27.6°F-2.4°C 26.1°F-3.3°C 94% 2.0 mph NE3.2 kmh NE 20.0 mph32.2 kmh 30.06 in1017.9 mb 0.09 in2.3 mm 0.12 in3.0 mm 0.17 in4.3 mm
10:00 AM 27.9°F-2.3°C 26.4°F-3.1°C 94% 2.0 mph NE3.2 kmh NE 16.0 mph25.7 kmh 30.05 in1017.6 mb 0.08 in2.0 mm 0.00 in0.0 mm 0.17 in4.3 mm
10:15 AM 28.0°F-2.2°C 26.5°F-3.1°C 94% 10.0 mph NE16.1 kmh NE 17.0 mph27.4 kmh 30.03 in1016.9 mb 0.10 in2.5 mm 0.08 in2.0 mm 0.19 in4.8 mm
10:30 AM 27.9°F-2.3°C 26.4°F-3.1°C 94% 5.0 mph ENE8.0 kmh ENE 21.0 mph33.8 kmh 30.03 in1016.9 mb 0.08 in2.0 mm 0.00 in0.0 mm 0.19 in4.8 mm
10:45 AM 28.0°F-2.2°C 26.5°F-3.1°C 94% 7.0 mph NE11.3 kmh NE 16.0 mph25.7 kmh 30.01 in1016.3 mb 0.10 in2.5 mm 0.08 in2.0 mm 0.21 in5.3 mm
11:00 AM 28.1°F-2.2°C 26.6°F-3.0°C 94% 10.0 mph ENE16.1 kmh ENE 19.0 mph30.6 kmh 30.00 in1015.9 mb 0.08 in2.0 mm 0.00 in0.0 mm 0.21 in5.3 mm
11:15 AM 28.1°F-2.2°C 26.6°F-3.0°C 94% 12.0 mph NE19.3 kmh NE 22.0 mph35.4 kmh 29.99 in1015.6 mb 0.11 in2.8 mm 0.12 in3.0 mm 0.24 in6.1 mm
11:30 AM 28.2°F-2.1°C 26.7°F-2.9°C 94% 10.0 mph NE16.1 kmh NE 22.0 mph35.4 kmh 29.98 in1015.2 mb 0.11 in2.8 mm 0.00 in0.0 mm 0.24 in6.1 mm
11:45 AM 28.2°F-2.1°C 26.7°F-2.9°C 94% 11.0 mph ESE17.7 kmh ESE 18.0 mph29.0 kmh 29.97 in1014.9 mb 0.13 in3.3 mm 0.08 in2.0 mm 0.26 in6.6 mm
12:00 PM 28.2°F-2.1°C 26.7°F-2.9°C 94% 5.0 mph ENE8.0 kmh ENE 22.0 mph35.4 kmh 29.99 in1015.6 mb 0.11 in2.8 mm 0.00 in0.0 mm 0.26 in6.6 mm
12:15 PM 28.3°F-2.1°C 26.8°F-2.9°C 94% 5.0 mph ENE8.0 kmh ENE 17.0 mph27.4 kmh 29.98 in1015.2 mb 0.13 in3.3 mm 0.08 in2.0 mm 0.28 in7.1 mm
12:30 PM 28.4°F-2.0°C 26.9°F-2.8°C 94% 7.0 mph NW11.3 kmh NW 24.0 mph38.6 kmh 29.98 in1015.2 mb 0.11 in2.8 mm 0.00 in0.0 mm 0.28 in7.1 mm
12:45 PM 28.5°F-1.9°C 27.3°F-2.6°C 95% 8.0 mph E12.9 kmh E 17.0 mph27.4 kmh 29.96 in1014.6 mb 0.13 in3.3 mm 0.08 in2.0 mm 0.30 in7.6 mm
01:00 PM 28.5°F-1.9°C 27.3°F-2.6°C 95% 10.0 mph NE16.1 kmh NE 16.0 mph25.7 kmh 29.95 in1014.2 mb 0.10 in2.5 mm 0.00 in0.0 mm 0.30 in7.6 mm
01:15 PM 28.7°F-1.8°C 27.5°F-2.5°C 95% 13.0 mph NE20.9 kmh NE 16.0 mph25.7 kmh 29.92 in1013.2 mb 0.13 in3.3 mm 0.12 in3.0 mm 0.33 in8.4 mm
01:30 PM 29.0°F-1.7°C 27.8°F-2.3°C 95% 7.0 mph NE11.3 kmh NE 19.0 mph30.6 kmh 29.95 in1014.2 mb 0.12 in3.0 mm 0.00 in0.0 mm 0.33 in8.4 mm
01:45 PM 29.2°F-1.6°C 27.7°F-2.4°C 94% 10.0 mph ENE16.1 kmh ENE 17.0 mph27.4 kmh 29.92 in1013.2 mb 0.14 in3.6 mm 0.08 in2.0 mm 0.35 in8.9 mm
02:00 PM 29.6°F-1.3°C 28.1°F-2.2°C 94% 15.0 mph E24.1 kmh E 16.0 mph25.7 kmh 29.88 in1011.9 mb 0.10 in2.5 mm 0.00 in0.0 mm 0.35 in8.9 mm
02:15 PM 30.0°F-1.1°C 28.5°F-1.9°C 94% 2.0 mph ENE3.2 kmh ENE 13.0 mph20.9 kmh 29.87 in1011.5 mb 0.12 in3.0 mm 0.08 in2.0 mm 0.37 in9.4 mm
02:30 PM 29.9°F-1.2°C 28.4°F-2.0°C 94% 12.0 mph ENE19.3 kmh ENE 17.0 mph27.4 kmh 29.89 in1012.2 mb 0.09 in2.3 mm 0.00 in0.0 mm 0.37 in9.4 mm
02:45 PM 29.9°F-1.2°C 28.4°F-2.0°C 94% 20.0 mph E32.2 kmh E 20.0 mph32.2 kmh 29.87 in1011.5 mb 0.11 in2.8 mm 0.08 in2.0 mm 0.39 in9.9 mm
03:00 PM 30.3°F-0.9°C 29.0°F-1.7°C 95% 3.0 mph NNE4.8 kmh NNE 16.0 mph25.7 kmh 29.85 in1010.8 mb 0.10 in2.5 mm 0.00 in0.0 mm 0.39 in9.9 mm
03:15 PM 30.5°F-0.8°C 29.2°F-1.6°C 95% 7.0 mph ENE11.3 kmh ENE 22.0 mph35.4 kmh 29.83 in1010.2 mb 0.14 in3.6 mm 0.16 in4.1 mm 0.43 in10.9 mm
03:30 PM 30.6°F-0.8°C 29.3°F-1.5°C 95% 8.0 mph E12.9 kmh E 14.0 mph22.5 kmh 29.83 in1010.2 mb 0.14 in3.6 mm 0.00 in0.0 mm 0.43 in10.9 mm
03:45 PM 30.7°F-0.7°C 29.4°F-1.4°C 95% 4.0 mph NE6.4 kmh NE 10.0 mph16.1 kmh 29.86 in1011.2 mb 0.16 in4.1 mm 0.08 in2.0 mm 0.45 in11.4 mm
04:00 PM 31.1°F-0.5°C 29.8°F-1.2°C 95% 3.0 mph NE4.8 kmh NE 12.0 mph19.3 kmh 29.90 in1012.5 mb 0.14 in3.6 mm 0.00 in0.0 mm 0.45 in11.4 mm
04:15 PM 31.1°F-0.5°C 29.8°F-1.2°C 95% 3.0 mph NE4.8 kmh NE 19.0 mph30.6 kmh 29.85 in1010.8 mb 0.16 in4.1 mm 0.08 in2.0 mm 0.47 in11.9 mm
04:30 PM 31.2°F-0.4°C 29.9°F-1.2°C 95% 4.0 mph NE6.4 kmh NE 17.0 mph27.4 kmh 29.84 in1010.5 mb 0.11 in2.8 mm 0.00 in0.0 mm 0.47 in11.9 mm
04:45 PM 31.1°F-0.5°C 29.8°F-1.2°C 95% Calm Calm -- 29.83 in1010.2 mb 0.14 in3.6 mm 0.12 in3.0 mm 0.50 in12.7 mm
05:00 PM 31.2°F-0.4°C 29.9°F-1.2°C 95% Calm Calm -- 29.83 in1010.2 mb 0.11 in2.8 mm 0.00 in0.0 mm 0.50 in12.7 mm
05:15 PM 31.2°F-0.4°C 29.9°F-1.2°C 95% Calm Calm -- 29.83 in1010.2 mb 0.12 in3.0 mm 0.04 in1.0 mm 0.51 in13.0 mm
05:30 PM 31.4°F-0.3°C 30.4°F-0.9°C 96% Calm Calm -- 29.83 in1010.2 mb 0.07 in1.8 mm 0.00 in0.0 mm 0.51 in13.0 mm
05:45 PM 31.5°F-0.3°C 30.5°F-0.8°C 96% Calm Calm -- 29.84 in1010.5 mb 0.08 in2.0 mm 0.04 in1.0 mm 0.52 in13.2 mm
06:00 PM 31.7°F-0.2°C 30.4°F-0.9°C 95% Calm Calm -- 29.85 in1010.8 mb 0.04 in1.0 mm 0.00 in0.0 mm 0.52 in13.2 mm
06:15 PM 31.8°F-0.1°C 30.5°F-0.8°C 95% Calm Calm -- 29.86 in1011.2 mb 0.07 in1.8 mm 0.12 in3.0 mm 0.55 in14.0 mm
06:30 PM 31.9°F-0.1°C 30.9°F-0.6°C 96% Calm Calm -- 29.83 in1010.2 mb 0.07 in1.8 mm 0.00 in0.0 mm 0.55 in14.0 mm
06:45 PM 31.9°F-0.1°C 30.9°F-0.6°C 96% Calm Calm -- 29.79 in1008.8 mb 0.09 in2.3 mm 0.08 in2.0 mm 0.57 in14.5 mm
07:00 PM 31.8°F-0.1°C 30.8°F-0.7°C 96% Calm Calm -- 29.81 in1009.5 mb 0.07 in1.8 mm 0.00 in0.0 mm 0.57 in14.5 mm
07:15 PM 31.7°F-0.2°C 30.7°F-0.7°C 96% Calm Calm -- 29.81 in1009.5 mb 0.08 in2.0 mm 0.04 in1.0 mm 0.58 in14.7 mm
07:30 PM 31.8°F-0.1°C 30.8°F-0.7°C 96% Calm Calm -- 29.81 in1009.5 mb 0.03 in0.8 mm 0.00 in0.0 mm 0.58 in14.7 mm
07:45 PM 31.9°F-0.1°C 30.9°F-0.6°C 96% Calm Calm -- 29.81 in1009.5 mb 0.03 in0.8 mm 0.00 in0.0 mm 0.58 in14.7 mm
08:00 PM 31.9°F-0.1°C 30.9°F-0.6°C 96% Calm Calm -- 29.79 in1008.8 mb 0.01 in0.3 mm 0.00 in0.0 mm 0.58 in14.7 mm
08:15 PM 31.9°F-0.1°C 30.9°F-0.6°C 96% Calm Calm -- 29.78 in1008.5 mb 0.01 in0.3 mm 0.00 in0.0 mm 0.58 in14.7 mm
08:30 PM 32.0°F0.0°C 31.0°F-0.6°C 96% Calm Calm -- 29.77 in1008.1 mb 0.02 in0.5 mm 0.04 in1.0 mm 0.59 in15.0 mm
08:45 PM 32.1°F0.1°C 31.1°F-0.5°C 96% Calm Calm -- 29.77 in1008.1 mb 0.02 in0.5 mm 0.00 in0.0 mm 0.59 in15.0 mm
09:00 PM 32.2°F0.1°C 31.2°F-0.4°C 96% Calm Calm -- 29.81 in1009.5 mb 0.02 in0.5 mm 0.00 in0.0 mm 0.59 in15.0 mm
09:15 PM 32.2°F0.1°C 31.2°F-0.4°C 96% Calm Calm -- 29.81 in1009.5 mb 0.02 in0.5 mm 0.00 in0.0 mm 0.59 in15.0 mm
09:30 PM 32.2°F0.1°C 31.2°F-0.4°C 96% Calm Calm -- 29.79 in1008.8 mb 0.01 in0.3 mm 0.00 in0.0 mm 0.59 in15.0 mm
09:45 PM 32.2°F0.1°C 31.2°F-0.4°C 96% Calm Calm -- 29.78 in1008.5 mb 0.01 in0.3 mm 0.00 in0.0 mm 0.59 in15.0 mm
10:00 PM 32.1°F0.1°C 31.1°F-0.5°C 96% Calm Calm -- 29.79 in1008.8 mb 0.00 in0.0 mm 0.00 in0.0 mm 0.59 in15.0 mm
10:15 PM 32.2°F0.1°C 31.2°F-0.4°C 96% Calm Calm -- 29.80 in1009.1 mb 0.00 in0.0 mm 0.00 in0.0 mm 0.59 in15.0 mm
10:30 PM 32.2°F0.1°C 31.2°F-0.4°C 96% Calm Calm -- 29.81 in1009.5 mb 0.00 in0.0 mm 0.00 in0.0 mm 0.59 in15.0 mm
10:45 PM 32.3°F0.2°C 31.3°F-0.4°C 96% Calm Calm -- 29.79 in1008.8 mb 0.00 in0.0 mm 0.00 in0.0 mm 0.59 in15.0 mm
11:00 PM 32.3°F0.2°C 31.3°F-0.4°C 96% Calm Calm -- 29.78 in1008.5 mb 0.01 in0.3 mm 0.01 in0.3 mm 0.60 in15.2 mm
11:15 PM 32.3°F0.2°C 31.3°F-0.4°C 96% Calm Calm -- 29.77 in1008.1 mb 0.02 in0.5 mm 0.04 in1.0 mm 0.61 in15.5 mm
11:30 PM 32.4°F0.2°C 31.4°F-0.3°C 96% Calm Calm -- 29.76 in1007.8 mb 0.02 in0.5 mm 0.00 in0.0 mm 0.61 in15.5 mm
11:45 PM 32.3°F0.2°C 31.6°F-0.2°C 97% Calm Calm -- 29.74 in1007.1 mb 0.02 in0.5 mm 0.00 in0.0 mm 0.61 in15.5 mm